sensor_id;sensor_type;location;lat;lon;timestamp;P1;durP1;ratioP1;P2;durP2;ratioP2
20828;SDS011;10575;50.124;8.582;2023-05-20T00:00:26;7.55;;;2.70;;
20828;SDS011;10575;50.124;8.582;2023-05-20T00:02:52;8.95;;;2.60;;
20828;SDS011;10575;50.124;8.582;2023-05-20T00:05:18;6.57;;;2.42;;
20828;SDS011;10575;50.124;8.582;2023-05-20T00:07:43;3.65;;;2.75;;
20828;SDS011;10575;50.124;8.582;2023-05-20T00:10:09;5.68;;;2.30;;
20828;SDS011;10575;50.124;8.582;2023-05-20T00:12:36;6.40;;;2.83;;
20828;SDS011;10575;50.124;8.582;2023-05-20T00:15:02;5.05;;;2.80;;
20828;SDS011;10575;50.124;8.582;2023-05-20T00:17:29;7.15;;;3.47;;
20828;SDS011;10575;50.124;8.582;2023-05-20T00:19:54;5.65;;;2.80;;
20828;SDS011;10575;50.124;8.582;2023-05-20T00:22:20;6.80;;;3.08;;
20828;SDS011;10575;50.124;8.582;2023-05-20T00:24:46;6.97;;;2.53;;
20828;SDS011;10575;50.124;8.582;2023-05-20T00:27:11;5.07;;;3.22;;
20828;SDS011;10575;50.124;8.582;2023-05-20T00:29:37;8.75;;;2.67;;
20828;SDS011;10575;50.124;8.582;2023-05-20T00:32:02;7.07;;;2.72;;
20828;SDS011;10575;50.124;8.582;2023-05-20T00:34:28;6.68;;;3.70;;
20828;SDS011;10575;50.124;8.582;2023-05-20T00:36:53;3.47;;;2.92;;
20828;SDS011;10575;50.124;8.582;2023-05-20T00:39:19;5.93;;;3.38;;
20828;SDS011;10575;50.124;8.582;2023-05-20T00:41:44;7.90;;;3.00;;
20828;SDS011;10575;50.124;8.582;2023-05-20T00:44:10;9.35;;;3.00;;
20828;SDS011;10575;50.124;8.582;2023-05-20T00:46:35;4.88;;;3.33;;
20828;SDS011;10575;50.124;8.582;2023-05-20T00:49:01;4.22;;;2.90;;
20828;SDS011;10575;50.124;8.582;2023-05-20T00:51:27;4.55;;;3.00;;
20828;SDS011;10575;50.124;8.582;2023-05-20T00:53:52;4.57;;;2.90;;
20828;SDS011;10575;50.124;8.582;2023-05-20T00:56:18;3.95;;;2.70;;
20828;SDS011;10575;50.124;8.582;2023-05-20T00:58:46;5.65;;;3.17;;
20828;SDS011;10575;50.124;8.582;2023-05-20T01:01:11;6.80;;;3.05;;
20828;SDS011;10575;50.124;8.582;2023-05-20T01:03:37;5.93;;;3.20;;
20828;SDS011;10575;50.124;8.582;2023-05-20T01:06:03;4.20;;;3.00;;
20828;SDS011;10575;50.124;8.582;2023-05-20T01:08:28;3.75;;;2.72;;
20828;SDS011;10575;50.124;8.582;2023-05-20T01:10:57;6.25;;;3.08;;
20828;SDS011;10575;50.124;8.582;2023-05-20T01:13:30;6.07;;;3.10;;
20828;SDS011;10575;50.124;8.582;2023-05-20T01:16:00;6.13;;;3.00;;
20828;SDS011;10575;50.124;8.582;2023-05-20T01:18:27;4.03;;;3.20;;
20828;SDS011;10575;50.124;8.582;2023-05-20T01:20:56;4.47;;;3.00;;
20828;SDS011;10575;50.124;8.582;2023-05-20T01:23:29;4.68;;;3.28;;
20828;SDS011;10575;50.124;8.582;2023-05-20T01:26:01;5.57;;;3.20;;
20828;SDS011;10575;50.124;8.582;2023-05-20T01:28:27;9.30;;;3.25;;
20828;SDS011;10575;50.124;8.582;2023-05-20T01:30:54;4.65;;;2.92;;
20828;SDS011;10575;50.124;8.582;2023-05-20T01:33:23;5.00;;;3.30;;
20828;SDS011;10575;50.124;8.582;2023-05-20T01:35:51;5.20;;;3.45;;
20828;SDS011;10575;50.124;8.582;2023-05-20T01:38:17;4.68;;;3.22;;
20828;SDS011;10575;50.124;8.582;2023-05-20T01:40:44;5.75;;;3.15;;
20828;SDS011;10575;50.124;8.582;2023-05-20T01:43:11;5.68;;;3.22;;
20828;SDS011;10575;50.124;8.582;2023-05-20T01:45:39;5.18;;;3.10;;
20828;SDS011;10575;50.124;8.582;2023-05-20T01:48:07;4.80;;;3.08;;
20828;SDS011;10575;50.124;8.582;2023-05-20T01:50:35;4.80;;;3.45;;
20828;SDS011;10575;50.124;8.582;2023-05-20T01:53:00;4.55;;;3.13;;
20828;SDS011;10575;50.124;8.582;2023-05-20T01:55:25;6.40;;;3.65;;
20828;SDS011;10575;50.124;8.582;2023-05-20T01:57:51;5.88;;;3.38;;
20828;SDS011;10575;50.124;8.582;2023-05-20T02:00:17;5.05;;;3.17;;
20828;SDS011;10575;50.124;8.582;2023-05-20T02:02:42;4.93;;;3.42;;
20828;SDS011;10575;50.124;8.582;2023-05-20T02:05:08;6.20;;;3.67;;
20828;SDS011;10575;50.124;8.582;2023-05-20T02:07:33;6.28;;;3.60;;
20828;SDS011;10575;50.124;8.582;2023-05-20T02:09:59;6.05;;;3.45;;
20828;SDS011;10575;50.124;8.582;2023-05-20T02:12:28;5.95;;;3.45;;
20828;SDS011;10575;50.124;8.582;2023-05-20T02:14:53;5.90;;;3.50;;
20828;SDS011;10575;50.124;8.582;2023-05-20T02:17:19;5.22;;;3.38;;
20828;SDS011;10575;50.124;8.582;2023-05-20T02:19:45;4.25;;;3.47;;
20828;SDS011;10575;50.124;8.582;2023-05-20T02:22:11;6.88;;;3.63;;
20828;SDS011;10575;50.124;8.582;2023-05-20T02:24:37;6.65;;;3.65;;
20828;SDS011;10575;50.124;8.582;2023-05-20T02:27:03;6.15;;;3.40;;
20828;SDS011;10575;50.124;8.582;2023-05-20T02:29:30;6.78;;;3.78;;
20828;SDS011;10575;50.124;8.582;2023-05-20T02:31:56;5.18;;;3.45;;
20828;SDS011;10575;50.124;8.582;2023-05-20T02:34:21;7.05;;;3.80;;
20828;SDS011;10575;50.124;8.582;2023-05-20T02:36:47;7.68;;;3.60;;
20828;SDS011;10575;50.124;8.582;2023-05-20T02:39:12;6.47;;;3.63;;
20828;SDS011;10575;50.124;8.582;2023-05-20T02:41:38;5.00;;;3.42;;
20828;SDS011;10575;50.124;8.582;2023-05-20T02:44:04;4.55;;;3.53;;
20828;SDS011;10575;50.124;8.582;2023-05-20T02:46:29;5.05;;;3.55;;
20828;SDS011;10575;50.124;8.582;2023-05-20T02:48:55;4.43;;;3.08;;
20828;SDS011;10575;50.124;8.582;2023-05-20T02:51:20;4.38;;;3.40;;
20828;SDS011;10575;50.124;8.582;2023-05-20T02:53:46;6.65;;;4.00;;
20828;SDS011;10575;50.124;8.582;2023-05-20T02:56:12;6.15;;;3.83;;
20828;SDS011;10575;50.124;8.582;2023-05-20T02:58:37;4.65;;;3.17;;
20828;SDS011;10575;50.124;8.582;2023-05-20T03:01:03;6.38;;;3.55;;
20828;SDS011;10575;50.124;8.582;2023-05-20T03:03:29;5.53;;;3.92;;
20828;SDS011;10575;50.124;8.582;2023-05-20T03:05:55;7.05;;;3.63;;
20828;SDS011;10575;50.124;8.582;2023-05-20T03:08:21;7.13;;;3.95;;
20828;SDS011;10575;50.124;8.582;2023-05-20T03:10:47;5.45;;;3.90;;
20828;SDS011;10575;50.124;8.582;2023-05-20T03:13:13;5.20;;;3.80;;
20828;SDS011;10575;50.124;8.582;2023-05-20T03:15:39;6.53;;;3.97;;
20828;SDS011;10575;50.124;8.582;2023-05-20T03:18:09;4.65;;;3.85;;
20828;SDS011;10575;50.124;8.582;2023-05-20T03:20:36;8.32;;;4.65;;
20828;SDS011;10575;50.124;8.582;2023-05-20T03:23:02;10.55;;;4.10;;
20828;SDS011;10575;50.124;8.582;2023-05-20T03:25:29;5.97;;;4.22;;
20828;SDS011;10575;50.124;8.582;2023-05-20T03:27:54;7.15;;;4.38;;
20828;SDS011;10575;50.124;8.582;2023-05-20T03:30:22;6.15;;;4.45;;
20828;SDS011;10575;50.124;8.582;2023-05-20T03:32:48;7.97;;;4.38;;
20828;SDS011;10575;50.124;8.582;2023-05-20T03:35:13;5.80;;;3.70;;
20828;SDS011;10575;50.124;8.582;2023-05-20T03:37:39;5.78;;;4.38;;
20828;SDS011;10575;50.124;8.582;2023-05-20T03:40:05;6.35;;;3.95;;
20828;SDS011;10575;50.124;8.582;2023-05-20T03:42:32;7.20;;;4.00;;
20828;SDS011;10575;50.124;8.582;2023-05-20T03:44:58;8.73;;;4.45;;
20828;SDS011;10575;50.124;8.582;2023-05-20T03:47:24;6.75;;;4.07;;
20828;SDS011;10575;50.124;8.582;2023-05-20T03:49:50;11.43;;;4.30;;
20828;SDS011;10575;50.124;8.582;2023-05-20T03:52:15;7.50;;;5.13;;
20828;SDS011;10575;50.124;8.582;2023-05-20T03:54:41;8.38;;;3.90;;
20828;SDS011;10575;50.124;8.582;2023-05-20T03:57:06;8.80;;;4.00;;
20828;SDS011;10575;50.124;8.582;2023-05-20T03:59:34;5.18;;;3.90;;
20828;SDS011;10575;50.124;8.582;2023-05-20T04:02:00;6.43;;;4.22;;
20828;SDS011;10575;50.124;8.582;2023-05-20T04:04:26;5.20;;;4.20;;
20828;SDS011;10575;50.124;8.582;2023-05-20T04:06:52;7.00;;;4.55;;
20828;SDS011;10575;50.124;8.582;2023-05-20T04:09:18;6.00;;;4.10;;
20828;SDS011;10575;50.124;8.582;2023-05-20T04:11:43;6.95;;;4.03;;
20828;SDS011;10575;50.124;8.582;2023-05-20T04:14:09;6.55;;;4.35;;
20828;SDS011;10575;50.124;8.582;2023-05-20T04:16:35;8.40;;;4.28;;
20828;SDS011;10575;50.124;8.582;2023-05-20T04:19:01;7.07;;;4.35;;
20828;SDS011;10575;50.124;8.582;2023-05-20T04:21:27;7.57;;;4.35;;
20828;SDS011;10575;50.124;8.582;2023-05-20T04:23:53;6.10;;;4.35;;
20828;SDS011;10575;50.124;8.582;2023-05-20T04:26:18;5.93;;;4.18;;
20828;SDS011;10575;50.124;8.582;2023-05-20T04:28:44;7.95;;;4.90;;
20828;SDS011;10575;50.124;8.582;2023-05-20T04:31:12;6.03;;;3.88;;
20828;SDS011;10575;50.124;8.582;2023-05-20T04:33:38;6.38;;;4.40;;
20828;SDS011;10575;50.124;8.582;2023-05-20T04:36:05;5.95;;;4.60;;
20828;SDS011;10575;50.124;8.582;2023-05-20T04:38:31;6.05;;;4.50;;
20828;SDS011;10575;50.124;8.582;2023-05-20T04:41:00;8.73;;;5.15;;
20828;SDS011;10575;50.124;8.582;2023-05-20T04:43:27;8.85;;;5.15;;
20828;SDS011;10575;50.124;8.582;2023-05-20T04:45:54;9.27;;;4.95;;
20828;SDS011;10575;50.124;8.582;2023-05-20T04:48:20;9.32;;;4.70;;
20828;SDS011;10575;50.124;8.582;2023-05-20T04:50:47;6.50;;;4.35;;
20828;SDS011;10575;50.124;8.582;2023-05-20T04:53:13;8.38;;;4.82;;
20828;SDS011;10575;50.124;8.582;2023-05-20T04:55:42;6.60;;;4.85;;
20828;SDS011;10575;50.124;8.582;2023-05-20T04:58:08;6.32;;;5.15;;
20828;SDS011;10575;50.124;8.582;2023-05-20T05:00:40;6.85;;;5.03;;
20828;SDS011;10575;50.124;8.582;2023-05-20T05:03:06;7.25;;;4.35;;
20828;SDS011;10575;50.124;8.582;2023-05-20T05:05:33;9.10;;;5.70;;
20828;SDS011;10575;50.124;8.582;2023-05-20T05:08:00;6.15;;;4.68;;
20828;SDS011;10575;50.124;8.582;2023-05-20T05:10:25;7.63;;;5.03;;
20828;SDS011;10575;50.124;8.582;2023-05-20T05:12:51;11.40;;;5.18;;
20828;SDS011;10575;50.124;8.582;2023-05-20T05:15:16;7.97;;;4.68;;
20828;SDS011;10575;50.124;8.582;2023-05-20T05:17:42;7.25;;;5.65;;
20828;SDS011;10575;50.124;8.582;2023-05-20T05:20:07;7.07;;;4.78;;
20828;SDS011;10575;50.124;8.582;2023-05-20T05:22:33;13.02;;;5.22;;
20828;SDS011;10575;50.124;8.582;2023-05-20T05:25:01;13.05;;;5.05;;
20828;SDS011;10575;50.124;8.582;2023-05-20T05:27:27;8.90;;;4.45;;
20828;SDS011;10575;50.124;8.582;2023-05-20T05:29:53;8.27;;;5.20;;
20828;SDS011;10575;50.124;8.582;2023-05-20T05:32:18;6.35;;;4.97;;
20828;SDS011;10575;50.124;8.582;2023-05-20T05:34:44;7.40;;;5.32;;
20828;SDS011;10575;50.124;8.582;2023-05-20T05:37:09;6.43;;;5.03;;
20828;SDS011;10575;50.124;8.582;2023-05-20T05:39:35;6.70;;;4.57;;
20828;SDS011;10575;50.124;8.582;2023-05-20T05:42:01;6.65;;;4.90;;
20828;SDS011;10575;50.124;8.582;2023-05-20T05:44:27;8.50;;;5.03;;
20828;SDS011;10575;50.124;8.582;2023-05-20T05:46:53;8.48;;;5.10;;
20828;SDS011;10575;50.124;8.582;2023-05-20T05:49:18;6.28;;;4.53;;
20828;SDS011;10575;50.124;8.582;2023-05-20T05:51:44;9.90;;;5.78;;
20828;SDS011;10575;50.124;8.582;2023-05-20T05:54:10;8.30;;;5.70;;
20828;SDS011;10575;50.124;8.582;2023-05-20T05:56:35;7.93;;;5.47;;
20828;SDS011;10575;50.124;8.582;2023-05-20T05:59:01;7.28;;;5.28;;
20828;SDS011;10575;50.124;8.582;2023-05-20T06:01:26;7.82;;;5.15;;
20828;SDS011;10575;50.124;8.582;2023-05-20T06:03:52;8.07;;;5.13;;
20828;SDS011;10575;50.124;8.582;2023-05-20T06:06:17;6.35;;;4.78;;
20828;SDS011;10575;50.124;8.582;2023-05-20T06:08:43;9.88;;;4.65;;
20828;SDS011;10575;50.124;8.582;2023-05-20T06:11:09;8.45;;;5.47;;
20828;SDS011;10575;50.124;8.582;2023-05-20T06:13:34;9.68;;;5.97;;
20828;SDS011;10575;50.124;8.582;2023-05-20T06:16:00;9.15;;;5.53;;
20828;SDS011;10575;50.124;8.582;2023-05-20T06:18:26;8.50;;;5.60;;
20828;SDS011;10575;50.124;8.582;2023-05-20T06:20:55;8.23;;;6.15;;
20828;SDS011;10575;50.124;8.582;2023-05-20T06:23:21;7.97;;;5.90;;
20828;SDS011;10575;50.124;8.582;2023-05-20T06:25:47;9.05;;;6.25;;
20828;SDS011;10575;50.124;8.582;2023-05-20T06:28:13;7.38;;;5.53;;
20828;SDS011;10575;50.124;8.582;2023-05-20T06:30:39;7.72;;;5.80;;
20828;SDS011;10575;50.124;8.582;2023-05-20T06:33:05;9.38;;;6.60;;
20828;SDS011;10575;50.124;8.582;2023-05-20T06:35:31;8.10;;;6.07;;
20828;SDS011;10575;50.124;8.582;2023-05-20T06:38:00;7.90;;;6.20;;
20828;SDS011;10575;50.124;8.582;2023-05-20T06:40:26;10.20;;;6.45;;
20828;SDS011;10575;50.124;8.582;2023-05-20T06:42:52;9.15;;;6.60;;
20828;SDS011;10575;50.124;8.582;2023-05-20T06:45:18;8.15;;;5.63;;
20828;SDS011;10575;50.124;8.582;2023-05-20T06:47:43;10.35;;;6.32;;
20828;SDS011;10575;50.124;8.582;2023-05-20T06:50:09;11.02;;;6.40;;
20828;SDS011;10575;50.124;8.582;2023-05-20T06:52:35;12.18;;;6.68;;
20828;SDS011;10575;50.124;8.582;2023-05-20T06:55:04;11.02;;;6.80;;
20828;SDS011;10575;50.124;8.582;2023-05-20T06:57:30;10.43;;;6.43;;
20828;SDS011;10575;50.124;8.582;2023-05-20T06:59:56;8.13;;;6.68;;
20828;SDS011;10575;50.124;8.582;2023-05-20T07:02:21;11.98;;;7.28;;
20828;SDS011;10575;50.124;8.582;2023-05-20T07:04:47;9.48;;;6.65;;
20828;SDS011;10575;50.124;8.582;2023-05-20T07:07:13;12.75;;;7.20;;
20828;SDS011;10575;50.124;8.582;2023-05-20T07:09:38;10.57;;;7.38;;
20828;SDS011;10575;50.124;8.582;2023-05-20T07:12:04;10.20;;;7.00;;
20828;SDS011;10575;50.124;8.582;2023-05-20T07:14:30;9.48;;;7.30;;
20828;SDS011;10575;50.124;8.582;2023-05-20T07:16:55;11.68;;;7.63;;
20828;SDS011;10575;50.124;8.582;2023-05-20T07:19:21;10.77;;;7.15;;
20828;SDS011;10575;50.124;8.582;2023-05-20T07:21:47;9.57;;;7.20;;
20828;SDS011;10575;50.124;8.582;2023-05-20T07:24:13;8.13;;;6.75;;
20828;SDS011;10575;50.124;8.582;2023-05-20T07:26:40;9.52;;;7.47;;
20828;SDS011;10575;50.124;8.582;2023-05-20T07:29:05;11.27;;;6.95;;
20828;SDS011;10575;50.124;8.582;2023-05-20T07:31:31;9.52;;;7.38;;
20828;SDS011;10575;50.124;8.582;2023-05-20T07:34:00;12.77;;;7.57;;
20828;SDS011;10575;50.124;8.582;2023-05-20T07:36:26;12.05;;;8.52;;
20828;SDS011;10575;50.124;8.582;2023-05-20T07:38:52;12.98;;;7.30;;
20828;SDS011;10575;50.124;8.582;2023-05-20T07:41:18;13.90;;;7.82;;
20828;SDS011;10575;50.124;8.582;2023-05-20T07:43:44;13.32;;;8.82;;
20828;SDS011;10575;50.124;8.582;2023-05-20T07:46:10;10.00;;;8.00;;
20828;SDS011;10575;50.124;8.582;2023-05-20T07:48:36;11.57;;;7.72;;
20828;SDS011;10575;50.124;8.582;2023-05-20T07:51:01;11.52;;;8.05;;
20828;SDS011;10575;50.124;8.582;2023-05-20T07:53:27;13.68;;;8.50;;
20828;SDS011;10575;50.124;8.582;2023-05-20T07:55:52;19.42;;;7.95;;
20828;SDS011;10575;50.124;8.582;2023-05-20T07:58:21;10.75;;;7.47;;
20828;SDS011;10575;50.124;8.582;2023-05-20T08:00:46;10.68;;;7.72;;
20828;SDS011;10575;50.124;8.582;2023-05-20T08:03:12;10.77;;;7.22;;
20828;SDS011;10575;50.124;8.582;2023-05-20T08:05:39;11.73;;;7.93;;
20828;SDS011;10575;50.124;8.582;2023-05-20T08:08:05;10.25;;;7.95;;
20828;SDS011;10575;50.124;8.582;2023-05-20T08:10:31;15.65;;;11.68;;
20828;SDS011;10575;50.124;8.582;2023-05-20T08:12:57;10.23;;;7.82;;
20828;SDS011;10575;50.124;8.582;2023-05-20T08:15:22;17.05;;;8.88;;
20828;SDS011;10575;50.124;8.582;2023-05-20T08:17:48;10.98;;;7.75;;
20828;SDS011;10575;50.124;8.582;2023-05-20T08:20:13;10.00;;;7.63;;
20828;SDS011;10575;50.124;8.582;2023-05-20T08:22:39;13.43;;;7.82;;
20828;SDS011;10575;50.124;8.582;2023-05-20T08:25:08;10.02;;;7.40;;
20828;SDS011;10575;50.124;8.582;2023-05-20T08:27:34;10.50;;;7.30;;
20828;SDS011;10575;50.124;8.582;2023-05-20T08:30:00;22.48;;;11.52;;
20828;SDS011;10575;50.124;8.582;2023-05-20T08:32:26;9.18;;;8.02;;
20828;SDS011;10575;50.124;8.582;2023-05-20T08:34:51;13.95;;;7.50;;
20828;SDS011;10575;50.124;8.582;2023-05-20T08:37:17;12.10;;;8.02;;
20828;SDS011;10575;50.124;8.582;2023-05-20T08:39:42;11.30;;;8.00;;
20828;SDS011;10575;50.124;8.582;2023-05-20T08:42:10;10.73;;;7.00;;
20828;SDS011;10575;50.124;8.582;2023-05-20T08:44:37;13.73;;;8.07;;
20828;SDS011;10575;50.124;8.582;2023-05-20T08:47:04;9.25;;;7.80;;
20828;SDS011;10575;50.124;8.582;2023-05-20T08:49:31;14.93;;;8.27;;
20828;SDS011;10575;50.124;8.582;2023-05-20T08:51:57;10.98;;;6.88;;
20828;SDS011;10575;50.124;8.582;2023-05-20T08:54:25;8.30;;;6.55;;
20828;SDS011;10575;50.124;8.582;2023-05-20T08:56:57;9.32;;;6.53;;
20828;SDS011;10575;50.124;8.582;2023-05-20T08:59:24;11.23;;;7.53;;
20828;SDS011;10575;50.124;8.582;2023-05-20T09:01:51;8.00;;;7.20;;
20828;SDS011;10575;50.124;8.582;2023-05-20T09:04:16;9.25;;;7.68;;
20828;SDS011;10575;50.124;8.582;2023-05-20T09:06:43;8.35;;;7.13;;
20828;SDS011;10575;50.124;8.582;2023-05-20T09:09:13;8.75;;;6.88;;
20828;SDS011;10575;50.124;8.582;2023-05-20T09:11:39;9.00;;;7.45;;
20828;SDS011;10575;50.124;8.582;2023-05-20T09:14:05;9.38;;;7.32;;
20828;SDS011;10575;50.124;8.582;2023-05-20T09:16:31;9.25;;;7.75;;
20828;SDS011;10575;50.124;8.582;2023-05-20T09:18:57;9.60;;;7.05;;
20828;SDS011;10575;50.124;8.582;2023-05-20T09:21:26;8.57;;;7.50;;
20828;SDS011;10575;50.124;8.582;2023-05-20T09:23:52;8.93;;;6.45;;
20828;SDS011;10575;50.124;8.582;2023-05-20T09:26:21;10.57;;;7.25;;
20828;SDS011;10575;50.124;8.582;2023-05-20T09:28:47;8.10;;;7.30;;
20828;SDS011;10575;50.124;8.582;2023-05-20T09:31:12;8.60;;;7.70;;
20828;SDS011;10575;50.124;8.582;2023-05-20T09:33:38;12.70;;;8.63;;
20828;SDS011;10575;50.124;8.582;2023-05-20T09:36:08;10.98;;;8.07;;
20828;SDS011;10575;50.124;8.582;2023-05-20T09:38:38;12.73;;;8.30;;
20828;SDS011;10575;50.124;8.582;2023-05-20T09:41:08;11.35;;;8.75;;
20828;SDS011;10575;50.124;8.582;2023-05-20T09:43:36;14.40;;;9.30;;
20828;SDS011;10575;50.124;8.582;2023-05-20T09:46:06;11.93;;;8.73;;
20828;SDS011;10575;50.124;8.582;2023-05-20T09:48:34;12.27;;;8.65;;
20828;SDS011;10575;50.124;8.582;2023-05-20T09:51:03;14.07;;;8.82;;
20828;SDS011;10575;50.124;8.582;2023-05-20T09:53:30;11.93;;;9.32;;
20828;SDS011;10575;50.124;8.582;2023-05-20T09:55:56;13.15;;;9.48;;
20828;SDS011;10575;50.124;8.582;2023-05-20T09:58:22;11.20;;;9.35;;
20828;SDS011;10575;50.124;8.582;2023-05-20T10:00:49;11.20;;;8.48;;
20828;SDS011;10575;50.124;8.582;2023-05-20T10:03:16;10.88;;;9.00;;
20828;SDS011;10575;50.124;8.582;2023-05-20T10:12:00;13.35;;;9.52;;
20828;SDS011;10575;50.124;8.582;2023-05-20T10:17:24;12.10;;;9.65;;
20828;SDS011;10575;50.124;8.582;2023-05-20T10:20:05;12.48;;;9.32;;
20828;SDS011;10575;50.124;8.582;2023-05-20T10:22:36;14.88;;;8.77;;
20828;SDS011;10575;50.124;8.582;2023-05-20T10:25:05;11.32;;;8.70;;
20828;SDS011;10575;50.124;8.582;2023-05-20T10:27:43;11.75;;;8.75;;
20828;SDS011;10575;50.124;8.582;2023-05-20T10:30:19;11.27;;;9.07;;
20828;SDS011;10575;50.124;8.582;2023-05-20T10:32:52;10.38;;;8.65;;
20828;SDS011;10575;50.124;8.582;2023-05-20T10:35:23;12.73;;;8.75;;
20828;SDS011;10575;50.124;8.582;2023-05-20T10:37:53;10.63;;;8.60;;
20828;SDS011;10575;50.124;8.582;2023-05-20T10:40:30;13.27;;;9.00;;
20828;SDS011;10575;50.124;8.582;2023-05-20T10:42:55;12.38;;;10.05;;
20828;SDS011;10575;50.124;8.582;2023-05-20T10:45:32;10.63;;;8.57;;
20828;SDS011;10575;50.124;8.582;2023-05-20T10:48:01;12.00;;;8.50;;
20828;SDS011;10575;50.124;8.582;2023-05-20T10:50:27;13.00;;;9.45;;
20828;SDS011;10575;50.124;8.582;2023-05-20T10:53:01;14.35;;;9.55;;
20828;SDS011;10575;50.124;8.582;2023-05-20T10:55:34;11.23;;;9.30;;
20828;SDS011;10575;50.124;8.582;2023-05-20T10:58:02;11.73;;;9.13;;
20828;SDS011;10575;50.124;8.582;2023-05-20T11:00:33;12.10;;;8.95;;
20828;SDS011;10575;50.124;8.582;2023-05-20T11:03:00;19.55;;;9.18;;
20828;SDS011;10575;50.124;8.582;2023-05-20T11:05:25;11.88;;;9.50;;
20828;SDS011;10575;50.124;8.582;2023-05-20T11:07:59;12.40;;;9.40;;
20828;SDS011;10575;50.124;8.582;2023-05-20T11:10:26;12.80;;;9.23;;
20828;SDS011;10575;50.124;8.582;2023-05-20T11:12:51;14.00;;;9.13;;
20828;SDS011;10575;50.124;8.582;2023-05-20T11:15:17;11.05;;;7.82;;
20828;SDS011;10575;50.124;8.582;2023-05-20T11:17:53;13.38;;;9.13;;
20828;SDS011;10575;50.124;8.582;2023-05-20T11:20:20;10.38;;;7.93;;
20828;SDS011;10575;50.124;8.582;2023-05-20T11:22:48;11.18;;;7.88;;
20828;SDS011;10575;50.124;8.582;2023-05-20T11:25:14;13.05;;;8.70;;
20828;SDS011;10575;50.124;8.582;2023-05-20T11:27:41;14.07;;;9.00;;
20828;SDS011;10575;50.124;8.582;2023-05-20T11:30:07;12.25;;;9.10;;
20828;SDS011;10575;50.124;8.582;2023-05-20T11:32:35;21.70;;;14.25;;
20828;SDS011;10575;50.124;8.582;2023-05-20T11:35:00;10.85;;;7.85;;
20828;SDS011;10575;50.124;8.582;2023-05-20T11:37:26;10.35;;;7.45;;
20828;SDS011;10575;50.124;8.582;2023-05-20T11:40:02;11.55;;;8.30;;
20828;SDS011;10575;50.124;8.582;2023-05-20T11:42:32;10.35;;;8.45;;
20828;SDS011;10575;50.124;8.582;2023-05-20T11:45:00;12.43;;;8.88;;
20828;SDS011;10575;50.124;8.582;2023-05-20T11:47:26;12.00;;;8.52;;
20828;SDS011;10575;50.124;8.582;2023-05-20T11:49:52;9.25;;;8.13;;
20828;SDS011;10575;50.124;8.582;2023-05-20T11:52:17;10.82;;;7.85;;
20828;SDS011;10575;50.124;8.582;2023-05-20T11:54:43;10.00;;;7.95;;
20828;SDS011;10575;50.124;8.582;2023-05-20T11:57:10;9.73;;;8.25;;
20828;SDS011;10575;50.124;8.582;2023-05-20T11:59:35;10.20;;;7.57;;
20828;SDS011;10575;50.124;8.582;2023-05-20T12:02:01;10.15;;;7.20;;
20828;SDS011;10575;50.124;8.582;2023-05-20T12:04:27;11.60;;;8.73;;
20828;SDS011;10575;50.124;8.582;2023-05-20T12:06:52;10.70;;;8.80;;
20828;SDS011;10575;50.124;8.582;2023-05-20T12:09:18;11.13;;;8.75;;
20828;SDS011;10575;50.124;8.582;2023-05-20T12:11:44;11.68;;;8.63;;
20828;SDS011;10575;50.124;8.582;2023-05-20T12:14:09;12.70;;;9.13;;
20828;SDS011;10575;50.124;8.582;2023-05-20T12:16:35;13.68;;;9.23;;
20828;SDS011;10575;50.124;8.582;2023-05-20T12:19:01;11.77;;;9.13;;
20828;SDS011;10575;50.124;8.582;2023-05-20T12:21:27;13.85;;;9.27;;
20828;SDS011;10575;50.124;8.582;2023-05-20T12:23:53;11.32;;;9.48;;
20828;SDS011;10575;50.124;8.582;2023-05-20T12:26:22;14.27;;;10.15;;
20828;SDS011;10575;50.124;8.582;2023-05-20T12:28:48;13.77;;;10.15;;
20828;SDS011;10575;50.124;8.582;2023-05-20T12:31:14;18.38;;;10.60;;
20828;SDS011;10575;50.124;8.582;2023-05-20T12:33:39;12.80;;;10.07;;
20828;SDS011;10575;50.124;8.582;2023-05-20T12:36:05;10.85;;;9.18;;
20828;SDS011;10575;50.124;8.582;2023-05-20T12:38:31;13.43;;;10.25;;
20828;SDS011;10575;50.124;8.582;2023-05-20T12:40:57;14.30;;;10.63;;
20828;SDS011;10575;50.124;8.582;2023-05-20T12:43:22;14.90;;;10.32;;
20828;SDS011;10575;50.124;8.582;2023-05-20T12:45:48;24.08;;;11.55;;
20828;SDS011;10575;50.124;8.582;2023-05-20T12:48:14;15.50;;;10.25;;
20828;SDS011;10575;50.124;8.582;2023-05-20T12:50:40;12.82;;;10.23;;
20828;SDS011;10575;50.124;8.582;2023-05-20T12:53:06;13.45;;;9.77;;
20828;SDS011;10575;50.124;8.582;2023-05-20T12:55:31;13.35;;;10.43;;
20828;SDS011;10575;50.124;8.582;2023-05-20T12:57:57;16.23;;;10.38;;
20828;SDS011;10575;50.124;8.582;2023-05-20T13:00:22;12.00;;;9.80;;
20828;SDS011;10575;50.124;8.582;2023-05-20T13:02:48;14.77;;;11.48;;
20828;SDS011;10575;50.124;8.582;2023-05-20T13:05:13;13.70;;;11.00;;
20828;SDS011;10575;50.124;8.582;2023-05-20T13:07:39;17.55;;;11.73;;
20828;SDS011;10575;50.124;8.582;2023-05-20T13:10:05;15.40;;;11.52;;
20828;SDS011;10575;50.124;8.582;2023-05-20T13:12:32;16.63;;;11.50;;
20828;SDS011;10575;50.124;8.582;2023-05-20T13:14:58;14.68;;;10.35;;
20828;SDS011;10575;50.124;8.582;2023-05-20T13:20:36;17.13;;;10.40;;
20828;SDS011;10575;50.124;8.582;2023-05-20T13:23:01;15.82;;;10.60;;
20828;SDS011;10575;50.124;8.582;2023-05-20T13:25:27;13.05;;;10.10;;
20828;SDS011;10575;50.124;8.582;2023-05-20T13:27:53;17.85;;;10.77;;
20828;SDS011;10575;50.124;8.582;2023-05-20T13:30:18;14.98;;;11.38;;
20828;SDS011;10575;50.124;8.582;2023-05-20T13:32:44;14.65;;;10.25;;
20828;SDS011;10575;50.124;8.582;2023-05-20T13:35:10;13.32;;;10.60;;
20828;SDS011;10575;50.124;8.582;2023-05-20T13:37:36;15.93;;;10.80;;
20828;SDS011;10575;50.124;8.582;2023-05-20T13:40:02;18.05;;;10.07;;
20828;SDS011;10575;50.124;8.582;2023-05-20T13:42:28;15.10;;;10.85;;
20828;SDS011;10575;50.124;8.582;2023-05-20T13:44:53;13.57;;;10.15;;
20828;SDS011;10575;50.124;8.582;2023-05-20T13:47:19;15.60;;;10.35;;
20828;SDS011;10575;50.124;8.582;2023-05-20T13:49:44;14.90;;;10.65;;
20828;SDS011;10575;50.124;8.582;2023-05-20T13:52:10;12.93;;;10.23;;
20828;SDS011;10575;50.124;8.582;2023-05-20T13:54:38;12.35;;;10.13;;
20828;SDS011;10575;50.124;8.582;2023-05-20T13:57:04;16.67;;;10.20;;
20828;SDS011;10575;50.124;8.582;2023-05-20T13:59:31;13.15;;;10.70;;
20828;SDS011;10575;50.124;8.582;2023-05-20T14:01:57;14.57;;;10.13;;
20828;SDS011;10575;50.124;8.582;2023-05-20T14:04:23;11.77;;;9.50;;
20828;SDS011;10575;50.124;8.582;2023-05-20T14:06:50;14.00;;;10.10;;
20828;SDS011;10575;50.124;8.582;2023-05-20T14:09:15;18.08;;;10.75;;
20828;SDS011;10575;50.124;8.582;2023-05-20T14:11:41;14.50;;;10.50;;
20828;SDS011;10575;50.124;8.582;2023-05-20T14:14:06;14.85;;;10.15;;
20828;SDS011;10575;50.124;8.582;2023-05-20T14:16:32;15.52;;;10.73;;
20828;SDS011;10575;50.124;8.582;2023-05-20T14:18:57;12.75;;;10.73;;
20828;SDS011;10575;50.124;8.582;2023-05-20T14:21:23;13.43;;;10.57;;
20828;SDS011;10575;50.124;8.582;2023-05-20T14:23:48;16.25;;;10.88;;
20828;SDS011;10575;50.124;8.582;2023-05-20T14:26:14;13.65;;;10.02;;
20828;SDS011;10575;50.124;8.582;2023-05-20T14:28:39;14.95;;;11.55;;
20828;SDS011;10575;50.124;8.582;2023-05-20T14:31:05;15.57;;;11.65;;
20828;SDS011;10575;50.124;8.582;2023-05-20T14:33:30;15.25;;;10.05;;
20828;SDS011;10575;50.124;8.582;2023-05-20T14:35:57;13.43;;;10.27;;
20828;SDS011;10575;50.124;8.582;2023-05-20T14:38:22;14.73;;;10.88;;
20828;SDS011;10575;50.124;8.582;2023-05-20T14:40:49;18.40;;;11.20;;
20828;SDS011;10575;50.124;8.582;2023-05-20T14:43:14;13.13;;;10.30;;
20828;SDS011;10575;50.124;8.582;2023-05-20T14:45:40;16.15;;;10.70;;